Webcam more information Webcam


avvertimento per Temporali more information blitzortung!


altri nostri siti meteo:

RISCHIO INCENDIRischio incendi

Pomeziameteo 1Sito sul meteo

Pomeziameteo DashboardSito sul meteo

Caput FrigorisSito sul meteo

BarcellonameteoSito sul meteo

MeteoipassiSito sul meteo

TortoretometeolidoSito sul meteo

CastelnuovovomanometeoSito sul meteo

MeteogonzagaSito sul meteo

MeteonetworkInvio dai a Meteonetwork



Temporali Da: 09-12-2019 09:00 Fino a: 18:59 Avvertimento per: Temporali Livello: Giallo info button

Report METAR

   
LIRV - Viterbo (it-Mil), Italy
Distanza dalla stazione: W 4 km
Dati ricevuti: 09-12-2019 18:55
DATI Obsoleti
Sereno  
Sereno  
   Vento: West 7.4 km/h
Vento: West 7.4 km/h
Temperatura: 9°C
Temperatura Vento: 8°C
P.to Rugiada: 7°C
Umidita: 87%
Barometro: 1008 hPa
Visibilita: oltre 10 km
dettagli cloud: Sereno
LIRV 091755Z 26004KT CAVOK 09/07 Q1008
LIQN - Rieti, Italy
Distanza dalla stazione: E 59 km
Dati ricevuti: 09-12-2019 16:50
DATI Obsoleti
Nearby Showers, Molto nuvoloso  
Nearby Showers, Molto nuvoloso  
   Vento: Variabile 3.7 km/h
Vento: Variabile 3.7 km/h
Temperatura: 11°C
P.to Rugiada: 9°C
Umidita: 88%
Barometro: 1007 hPa
Nuvole: Molto nuvoloso
Visibilita: 9 km
dettagli cloud: Molto nuvoloso 914.4 m
LIQN 091550Z VRB02KT 9000 VCSH BKN030 11/09 Q1007
LIRU - Rome/Urbe (it-Af, Italy
Distanza dalla stazione: S 61 km
Dati ricevuti: 09-12-2019 16:50
DATI Obsoleti
Sereno  
Sereno  
   Vento: Variabile 5.6 km/h
Vento: Variabile 5.6 km/h
Temperatura: 14°C
P.to Rugiada: 11°C
Umidita: 82%
Barometro: 1007 hPa
Visibilita: oltre 10 km
dettagli cloud: Sereno
LIRU 091550Z VRB03KT CAVOK 14/11 Q1007
LIRG - Guidonia (it-Afb, Italy
Distanza dalla stazione: SE 68 km
Dati ricevuti: 09-12-2019 18:55
DATI Obsoleti
Parzialmente nuvoloso  
Parzialmente nuvoloso  
   Vento: Oriente 3.7 km/h
Vento: Oriente 3.7 km/h
Temperatura: 11°C
P.to Rugiada: 11°C
Umidita: 100%
Barometro: 1008 hPa
Nuvole: Parzialmente nuvoloso
Visibilita: oltre 10 km
dettagli cloud: Parzialmente nuvoloso 1066.8 m
LIRG 091755Z 10002KT 9999 SCT035 11/11 Q1008
LIRK - Terminillo Mount, Italy
Distanza dalla stazione: E 70 km
Dati ricevuti: 09-12-2019 20:55
  
  
   Vento: NNW 25.9 km/h
Vento: NNW 25.9 km/h
Temperatura: 0°C
Temperatura Vento: -6°C
P.to Rugiada: -1°C
Umidita: 93%
Barometro: 1007 hPa
LIRK 091955Z AUTO 33014KT //// M00/M01 Q1007
 

Script sviluppato da  Saratoga-weather.org Adattato per il modello da  Weerstation Leuven

Strumentazione usata:

Stazione meteo
Davis VP2

Programma gestore dati meteo
WVIEW

Server per i dati meteo
WDS-5

Davis VP2

WVIEW

WDS-5